Time;durP1;ratioP1;P1;durP2;ratioP2;P2;SDS_P1;SDS_P2;PMS_P1;PMS_P2;Temp;Humidity;BMP_temperature;BMP_pressure;BME280_temperature;BME280_humidity;BME280_pressure;Samples;Min_cycle;Max_cycle;Signal;HPM_P1;HPM_P2
2023/04/14 00:00:48;;;;;;;;;15.67;11.33;;;;;;;;117396;1184;24851;-65
2023/04/14 00:03:18;;;;;;;;;7.67;7.00;;;;;;;;117247;1196;25592;-66
2023/04/14 00:05:47;;;;;;;;;17.67;12.33;;;;;;;;117379;1192;25844;-66
2023/04/14 00:08:15;;;;;;;;;14.75;9.50;;;;;;;;117372;1184;24820;-66
2023/04/14 00:10:43;;;;;;;;;17.00;12.50;;;;;;;;117373;1190;25095;-68
2023/04/14 00:13:12;;;;;;;;;16.00;11.00;;;;;;;;117385;1183;24910;-68
2023/04/14 00:15:41;;;;;;;;;14.00;13.50;;;;;;;;117363;1190;24904;-67
2023/04/14 00:18:09;;;;;;;;;11.75;11.75;;;;;;;;117162;1186;24692;-68
2023/04/14 00:20:38;;;;;;;;;12.00;12.00;;;;;;;;117157;1196;25801;-67
2023/04/14 00:23:06;;;;;;;;;14.00;12.00;;;;;;;;117386;1196;24711;-67
2023/04/14 00:25:35;;;;;;;;;14.50;12.00;;;;;;;;117172;1196;25473;-68
2023/04/14 00:28:03;;;;;;;;;12.67;11.00;;;;;;;;117139;1186;24807;-68
2023/04/14 00:30:32;;;;;;;;;13.50;10.50;;;;;;;;117371;1183;24753;-68
2023/04/14 00:33:00;;;;;;;;;10.00;8.50;;;;;;;;117365;1190;25505;-67
2023/04/14 00:35:30;;;;;;;;;9.00;9.00;;;;;;;;117143;1196;25317;-67
2023/04/14 00:37:59;;;;;;;;;13.00;11.00;;;;;;;;117839;1181;24711;-67
2023/04/14 00:40:28;;;;;;;;;11.67;9.00;;;;;;;;117811;1188;25683;-68
2023/04/14 00:42:56;;;;;;;;;17.33;13.33;;;;;;;;117823;1180;25310;-67
2023/04/14 00:45:26;;;;;;;;;13.00;13.00;;;;;;;;117872;1193;25377;-66
2023/04/14 00:47:55;;;;;;;;;13.67;9.33;;;;;;;;117901;1193;24830;-66
2023/04/14 00:50:24;;;;;;;;;10.67;10.67;;;;;;;;117893;1180;25060;-66
2023/04/14 00:52:53;;;;;;;;;10.00;6.33;;;;;;;;117910;1192;25732;-67
2023/04/14 00:55:21;;;;;;;;;11.00;10.00;;;;;;;;117894;1193;26049;-66
2023/04/14 00:57:50;;;;;;;;;15.00;12.00;;;;;;;;117888;1180;25151;-67
2023/04/14 01:00:19;;;;;;;;;10.67;10.00;;;;;;;;117894;1180;25345;-68
2023/04/14 01:02:47;;;;;;;;;12.50;11.50;;;;;;;;117912;1187;25665;-68
2023/04/14 01:05:16;;;;;;;;;13.50;12.00;;;;;;;;117885;1191;25342;-68
2023/04/14 01:07:47;;;;;;;;;13.67;11.67;;;;;;;;117902;1187;25532;-68
2023/04/14 01:10:15;;;;;;;;;17.67;12.00;;;;;;;;117499;1180;25683;-68
2023/04/14 01:12:55;;;;;;;;;13.00;13.00;;;;;;;;117455;1181;25585;-68
2023/04/14 01:15:39;;;;;;;;;11.67;11.33;;;;;;;;117741;1179;25153;-67
2023/04/14 01:18:20;;;;;;;;;16.00;13.25;;;;;;;;117781;1180;25075;-67
2023/04/14 01:20:51;;;;;;;;;15.00;12.33;;;;;;;;117844;1192;25099;-67
2023/04/14 01:23:26;;;;;;;;;11.75;11.75;;;;;;;;117818;1183;25633;-66
2023/04/14 01:25:57;;;;;;;;;11.50;10.50;;;;;;;;117782;1180;24813;-68
2023/04/14 01:29:02;;;;;;;;;17.67;11.67;;;;;;;;117748;1180;25506;-68
2023/04/14 01:31:38;;;;;;;;;12.00;11.33;;;;;;;;117845;1187;25459;-67
2023/04/14 01:34:12;;;;;;;;;9.67;9.67;;;;;;;;117893;1192;24987;-67
2023/04/14 01:36:43;;;;;;;;;14.00;11.67;;;;;;;;117887;1193;25930;-67
2023/04/14 01:39:15;;;;;;;;;13.00;13.00;;;;;;;;117898;1189;25535;-68
2023/04/14 01:41:51;;;;;;;;;9.00;7.00;;;;;;;;117873;1179;25178;-67
2023/04/14 01:44:21;;;;;;;;;14.00;10.67;;;;;;;;117894;1182;25575;-67
2023/04/14 01:46:51;;;;;;;;;12.75;11.25;;;;;;;;117559;1188;25629;-67
2023/04/14 01:49:21;;;;;;;;;12.50;10.00;;;;;;;;117503;1187;25268;-67
2023/04/14 01:51:50;;;;;;;;;15.50;13.00;;;;;;;;117474;1191;25673;-68
2023/04/14 01:54:19;;;;;;;;;10.00;10.00;;;;;;;;117501;1180;25055;-68
2023/04/14 01:56:50;;;;;;;;;14.25;12.00;;;;;;;;117828;1181;25494;-69
2023/04/14 01:59:21;;;;;;;;;11.00;11.00;;;;;;;;117908;1183;25667;-68
2023/04/14 02:01:50;;;;;;;;;11.50;9.50;;;;;;;;117471;1180;25009;-68
2023/04/14 02:04:21;;;;;;;;;10.67;9.33;;;;;;;;117475;1190;25220;-69
2023/04/14 02:06:51;;;;;;;;;15.00;13.50;;;;;;;;117939;1180;25824;-67
2023/04/14 02:09:20;;;;;;;;;11.75;9.75;;;;;;;;117937;1187;25645;-68
2023/04/14 02:11:49;;;;;;;;;12.33;10.67;;;;;;;;117805;1180;25350;-67
2023/04/14 02:14:18;;;;;;;;;13.75;12.00;;;;;;;;117801;1180;24879;-75
2023/04/14 02:16:52;;;;;;;;;12.00;10.00;;;;;;;;117542;1180;24729;-75
2023/04/14 02:19:28;;;;;;;;;11.33;8.33;;;;;;;;117519;1184;24807;-71
2023/04/14 02:21:57;;;;;;;;;15.25;11.00;;;;;;;;117490;1191;25421;-67
2023/04/14 02:24:26;;;;;;;;;13.50;13.00;;;;;;;;117492;1184;25194;-67
2023/04/14 02:27:00;;;;;;;;;16.00;13.50;;;;;;;;117877;1180;24820;-68
2023/04/14 02:29:31;;;;;;;;;13.00;11.00;;;;;;;;117806;1180;24813;-68
2023/04/14 02:32:03;;;;;;;;;11.67;10.33;;;;;;;;117527;1184;26199;-68
2023/04/14 02:34:39;;;;;;;;;13.75;11.00;;;;;;;;117809;1181;24769;-69
2023/04/14 02:37:09;;;;;;;;;15.67;13.00;;;;;;;;117846;1193;25101;-69
2023/04/14 02:39:43;;;;;;;;;14.33;14.00;;;;;;;;117534;1180;25162;-70
2023/04/14 02:42:15;;;;;;;;;14.75;14.00;;;;;;;;117880;1187;25153;-68
2023/04/14 02:44:49;;;;;;;;;11.33;11.33;;;;;;;;117447;1184;25656;-68
2023/04/14 02:47:28;;;;;;;;;12.50;10.25;;;;;;;;117779;1190;25389;-68
2023/04/14 02:49:58;;;;;;;;;10.00;9.50;;;;;;;;117799;1180;25525;-67
2023/04/14 02:52:28;;;;;;;;;13.00;12.00;;;;;;;;117503;1180;25101;-68
2023/04/14 02:54:57;;;;;;;;;18.75;14.25;;;;;;;;117514;1192;25049;-67
2023/04/14 02:57:27;;;;;;;;;13.00;11.00;;;;;;;;117507;1180;25171;-67
2023/04/14 02:59:57;;;;;;;;;15.50;12.00;;;;;;;;117479;1181;25205;-68
2023/04/14 03:02:30;;;;;;;;;19.33;11.33;;;;;;;;117501;1181;26174;-68
2023/04/14 03:05:00;;;;;;;;;17.50;14.50;;;;;;;;117874;1180;25181;-68
2023/04/14 03:07:30;;;;;;;;;12.67;11.00;;;;;;;;117851;1181;24803;-67
2023/04/14 03:09:59;;;;;;;;;12.00;11.50;;;;;;;;117439;1180;24724;-68
2023/04/14 03:12:28;;;;;;;;;15.50;13.00;;;;;;;;117902;1180;25373;-68
2023/04/14 03:14:57;;;;;;;;;16.25;13.25;;;;;;;;117870;1179;25282;-65
2023/04/14 03:17:26;;;;;;;;;12.00;12.00;;;;;;;;117423;1187;25264;-64
2023/04/14 03:19:55;;;;;;;;;15.00;15.00;;;;;;;;117865;1180;24709;-65
2023/04/14 03:22:25;;;;;;;;;14.00;11.75;;;;;;;;117461;1180;25494;-65
2023/04/14 03:24:57;;;;;;;;;17.33;15.00;;;;;;;;117504;1182;25971;-65
2023/04/14 03:27:29;;;;;;;;;12.67;12.00;;;;;;;;117494;1180;25243;-65
2023/04/14 03:30:06;;;;;;;;;12.75;12.00;;;;;;;;117879;1181;25035;-68
2023/04/14 03:32:40;;;;;;;;;13.00;13.00;;;;;;;;117874;1180;25040;-67
2023/04/14 03:35:11;;;;;;;;;11.33;11.33;;;;;;;;117846;1190;25527;-67
2023/04/14 03:37:40;;;;;;;;;13.50;11.25;;;;;;;;117881;1180;25680;-67
2023/04/14 03:40:10;;;;;;;;;14.00;12.25;;;;;;;;117523;1183;25722;-67
2023/04/14 03:42:43;;;;;;;;;15.33;12.33;;;;;;;;117901;1180;25181;-67
2023/04/14 03:45:11;;;;;;;;;11.75;10.50;;;;;;;;117874;1180;25284;-67
2023/04/14 03:47:40;;;;;;;;;17.00;15.50;;;;;;;;117531;1181;25288;-67
2023/04/14 03:50:09;;;;;;;;;14.67;11.67;;;;;;;;117837;1180;25080;-67
2023/04/14 03:52:39;;;;;;;;;14.00;13.00;;;;;;;;117527;1183;24860;-68
2023/04/14 03:55:11;;;;;;;;;13.00;13.00;;;;;;;;117871;1180;25692;-67
2023/04/14 03:57:41;;;;;;;;;16.00;14.50;;;;;;;;117804;1192;25612;-67
2023/04/14 04:00:11;;;;;;;;;15.00;10.00;;;;;;;;117838;1180;24869;-66
2023/04/14 04:02:41;;;;;;;;;13.50;12.50;;;;;;;;117864;1183;25664;-69
2023/04/14 04:05:11;;;;;;;;;15.50;15.50;;;;;;;;117430;1180;25079;-65
2023/04/14 04:07:40;;;;;;;;;13.00;12.50;;;;;;;;117535;1193;25225;-65
2023/04/14 04:10:12;;;;;;;;;16.00;14.00;;;;;;;;117834;1181;24747;-64
2023/04/14 04:12:46;;;;;;;;;16.00;12.33;;;;;;;;117809;1191;24875;-65
2023/04/14 04:15:15;;;;;;;;;17.67;15.67;;;;;;;;117862;1183;24759;-64
2023/04/14 04:17:44;;;;;;;;;17.50;13.00;;;;;;;;117903;1183;25397;-63
2023/04/14 04:20:13;;;;;;;;;18.00;15.00;;;;;;;;117469;1193;25648;-62
2023/04/14 04:22:43;;;;;;;;;32.00;28.00;;;;;;;;117549;1180;24952;-62
2023/04/14 04:25:12;;;;;;;;;52.50;41.50;;;;;;;;117468;1184;25139;-61
2023/04/14 04:27:40;;;;;;;;;56.50;44.50;;;;;;;;117859;1180;25300;-61
2023/04/14 04:30:10;;;;;;;;;43.67;37.00;;;;;;;;117902;1183;24719;-60
2023/04/14 04:32:38;;;;;;;;;43.33;36.33;;;;;;;;117973;1177;25577;-65
2023/04/14 04:35:07;;;;;;;;;43.00;34.00;;;;;;;;118048;1177;25540;-63
2023/04/14 04:37:36;;;;;;;;;34.67;31.67;;;;;;;;117970;1177;25637;-63
2023/04/14 04:40:06;;;;;;;;;32.00;27.00;;;;;;;;117877;1181;25104;-63
2023/04/14 04:42:40;;;;;;;;;31.00;30.00;;;;;;;;117953;1177;25448;-63
2023/04/14 04:45:09;;;;;;;;;29.67;25.00;;;;;;;;117923;1190;24884;-61
2023/04/14 04:47:38;;;;;;;;;27.33;26.67;;;;;;;;117943;1177;25611;-61
2023/04/14 04:50:07;;;;;;;;;25.00;24.50;;;;;;;;117969;1177;25174;-61
2023/04/14 04:52:35;;;;;;;;;29.33;26.00;;;;;;;;117929;1190;25211;-62
2023/04/14 04:55:04;;;;;;;;;25.00;23.00;;;;;;;;117927;1189;25218;-61
2023/04/14 04:57:33;;;;;;;;;31.50;27.50;;;;;;;;117947;1177;24952;-62
2023/04/14 05:00:01;;;;;;;;;32.00;27.50;;;;;;;;117929;1180;25371;-62
2023/04/14 05:02:29;;;;;;;;;28.00;26.50;;;;;;;;117947;1187;24753;-63
2023/04/14 05:04:58;;;;;;;;;25.50;24.50;;;;;;;;117966;1177;25338;-69
2023/04/14 05:07:27;;;;;;;;;26.50;25.00;;;;;;;;117915;1177;25333;-73
2023/04/14 05:09:55;;;;;;;;;30.50;27.50;;;;;;;;117948;1191;24735;-71
2023/04/14 05:12:24;;;;;;;;;28.67;24.67;;;;;;;;117907;1180;24889;-70
2023/04/14 05:14:52;;;;;;;;;27.00;24.00;;;;;;;;117926;1179;24979;-70
2023/04/14 05:17:21;;;;;;;;;27.50;23.50;;;;;;;;117908;1191;24802;-73
2023/04/14 05:19:49;;;;;;;;;31.00;28.00;;;;;;;;117828;1180;25431;-72
2023/04/14 05:22:18;;;;;;;;;;;;;;;;;;117883;1181;24835;-74
2023/04/14 05:24:50;;;;;;;;;25.50;21.00;;;;;;;;117896;1179;25582;-73
2023/04/14 05:27:18;;;;;;;;;25.50;24.00;;;;;;;;117917;1182;24939;-75
2023/04/14 05:29:46;;;;;;;;;25.00;23.67;;;;;;;;117814;1181;24916;-75
2023/04/14 05:32:15;;;;;;;;;32.00;25.67;;;;;;;;117807;1184;24779;-81
2023/04/14 05:34:44;;;;;;;;;26.00;24.33;;;;;;;;117808;1180;25171;-84
2023/04/14 05:37:12;;;;;;;;;22.25;22.00;;;;;;;;117877;1183;25127;-78
2023/04/14 05:39:41;;;;;;;;;19.50;18.00;;;;;;;;117829;1181;25026;-75
2023/04/14 05:42:09;;;;;;;;;24.00;20.00;;;;;;;;117821;1180;24905;-68
2023/04/14 05:44:38;;;;;;;;;22.00;20.67;;;;;;;;117851;1180;24910;-71
2023/04/14 05:47:06;;;;;;;;;29.67;22.33;;;;;;;;117878;1182;25358;-70
2023/04/14 05:49:35;;;;;;;;;26.00;23.00;;;;;;;;117835;1187;24908;-71
2023/04/14 05:52:03;;;;;;;;;28.50;24.00;;;;;;;;117841;1180;25643;-70
2023/04/14 05:54:32;;;;;;;;;27.33;25.67;;;;;;;;117913;1180;25513;-72
2023/04/14 05:57:00;;;;;;;;;27.00;24.00;;;;;;;;117871;1180;24929;-73
2023/04/14 05:59:29;;;;;;;;;32.33;29.00;;;;;;;;117823;1180;25222;-71
2023/04/14 06:01:58;;;;;;;;;22.33;22.33;;;;;;;;117828;1191;25702;-72
2023/04/14 06:04:27;;;;;;;;;27.50;23.00;;;;;;;;117861;1179;25910;-71
2023/04/14 06:06:57;;;;;;;;;26.00;23.33;;;;;;;;117880;1181;25244;-71
2023/04/14 06:09:25;;;;;;;;;25.33;22.67;;;;;;;;117897;1177;25589;-71
2023/04/14 06:11:55;;;;;;;;;23.50;20.00;;;;;;;;117882;1177;25577;-72
2023/04/14 06:14:24;;;;;;;;;27.00;21.00;;;;;;;;117919;1177;25530;-73
2023/04/14 06:16:53;;;;;;;;;27.33;24.33;;;;;;;;117861;1181;25504;-73
2023/04/14 06:19:22;;;;;;;;;25.50;23.75;;;;;;;;117958;1190;24746;-70
2023/04/14 06:21:51;;;;;;;;;25.00;20.33;;;;;;;;117916;1178;25102;-70
2023/04/14 06:24:19;;;;;;;;;20.50;19.25;;;;;;;;117900;1177;24782;-70
2023/04/14 06:26:48;;;;;;;;;18.00;18.00;;;;;;;;117899;1190;25693;-69
2023/04/14 06:29:17;;;;;;;;;31.50;25.50;;;;;;;;117907;1177;25541;-71
2023/04/14 06:31:45;;;;;;;;;26.00;25.50;;;;;;;;117866;1190;25592;-71
2023/04/14 06:34:14;;;;;;;;;24.00;22.67;;;;;;;;117917;1184;25161;-72
2023/04/14 06:36:42;;;;;;;;;28.67;26.33;;;;;;;;117932;1178;25293;-72
2023/04/14 06:39:12;;;;;;;;;25.50;22.50;;;;;;;;117903;1177;25529;-72
2023/04/14 06:41:40;;;;;;;;;27.00;22.67;;;;;;;;117941;1190;25679;-71
2023/04/14 06:44:09;;;;;;;;;23.75;21.75;;;;;;;;117924;1190;25605;-73
2023/04/14 06:46:38;;;;;;;;;22.25;21.25;;;;;;;;117928;1177;25969;-72
2023/04/14 06:49:07;;;;;;;;;25.33;22.33;;;;;;;;117953;1177;24725;-74
2023/04/14 06:51:35;;;;;;;;;24.50;20.50;;;;;;;;117904;1178;25470;-73
2023/04/14 06:54:04;;;;;;;;;21.50;18.50;;;;;;;;117945;1178;25525;-69
2023/04/14 06:56:32;;;;;;;;;15.00;12.67;;;;;;;;117977;1177;24963;-70
2023/04/14 06:59:01;;;;;;;;;18.67;15.33;;;;;;;;117943;1177;24859;-71
2023/04/14 07:01:29;;;;;;;;;24.00;22.00;;;;;;;;117968;1177;25247;-71
2023/04/14 07:03:58;;;;;;;;;20.25;19.00;;;;;;;;117929;1180;25102;-72
2023/04/14 07:06:27;;;;;;;;;22.75;20.25;;;;;;;;117955;1177;25073;-71
2023/04/14 07:08:55;;;;;;;;;23.50;19.50;;;;;;;;117835;1181;24819;-71
2023/04/14 07:11:23;;;;;;;;;24.00;17.00;;;;;;;;117944;1177;25523;-72
2023/04/14 07:13:52;;;;;;;;;19.33;16.00;;;;;;;;117951;1177;24972;-72
2023/04/14 07:16:20;;;;;;;;;25.50;20.00;;;;;;;;117956;1178;25083;-72
2023/04/14 07:18:49;;;;;;;;;19.25;16.25;;;;;;;;117830;1180;25065;-72
2023/04/14 07:21:17;;;;;;;;;20.25;18.25;;;;;;;;117896;1182;25055;-71
2023/04/14 07:23:45;;;;;;;;;20.50;17.50;;;;;;;;117840;1187;25152;-72
2023/04/14 07:26:14;;;;;;;;;20.25;19.50;;;;;;;;117867;1177;24946;-72
2023/04/14 07:28:43;;;;;;;;;18.50;16.00;;;;;;;;117997;1190;25321;-71
2023/04/14 07:31:11;;;;;;;;;23.67;19.67;;;;;;;;118037;1177;25347;-71
2023/04/14 07:33:40;;;;;;;;;25.50;21.50;;;;;;;;117835;1179;26110;-69
2023/04/14 07:36:08;;;;;;;;;17.67;16.33;;;;;;;;118034;1177;24931;-68
2023/04/14 07:38:37;;;;;;;;;17.67;16.67;;;;;;;;118050;1190;25451;-67
2023/04/14 07:41:07;;;;;;;;;20.67;16.33;;;;;;;;118047;1187;25112;-70
2023/04/14 07:43:35;;;;;;;;;22.00;18.67;;;;;;;;118105;1177;25281;-69
2023/04/14 07:46:06;;;;;;;;;22.00;18.50;;;;;;;;118065;1177;25233;-69
2023/04/14 07:48:35;;;;;;;;;23.00;18.00;;;;;;;;118029;1183;25769;-69
2023/04/14 07:51:04;;;;;;;;;18.00;17.50;;;;;;;;117916;1177;25386;-69
2023/04/14 07:53:33;;;;;;;;;22.33;18.67;;;;;;;;117967;1180;25257;-69
2023/04/14 07:56:02;;;;;;;;;19.00;15.67;;;;;;;;118082;1177;25148;-69
2023/04/14 07:58:31;;;;;;;;;24.00;19.50;;;;;;;;118057;1177;26274;-67
2023/04/14 08:00:59;;;;;;;;;20.25;15.50;;;;;;;;117967;1177;24952;-67
2023/04/14 08:03:28;;;;;;;;;24.00;15.00;;;;;;;;117931;1177;24915;-67
2023/04/14 08:05:57;;;;;;;;;15.75;15.25;;;;;;;;117926;1177;25580;-67
2023/04/14 08:08:25;;;;;;;;;17.25;16.00;;;;;;;;117911;1180;25176;-67
2023/04/14 08:10:54;;;;;;;;;21.67;19.67;;;;;;;;117905;1178;25693;-67
2023/04/14 08:13:22;;;;;;;;;10.00;7.00;;;;;;;;117816;1177;25274;-67
2023/04/14 08:15:50;;;;;;;;;17.75;16.00;;;;;;;;117829;1177;25081;-65
2023/04/14 08:18:19;;;;;;;;;17.00;14.50;;;;;;;;117924;1178;25680;-65
2023/04/14 08:20:48;;;;;;;;;20.25;18.50;;;;;;;;118045;1184;25182;-65
2023/04/14 08:23:17;;;;;;;;;20.75;16.50;;;;;;;;118169;1190;24790;-66
2023/04/14 08:25:46;;;;;;;;;17.25;16.00;;;;;;;;118193;1177;24935;-66
2023/04/14 08:28:14;;;;;;;;;16.67;15.00;;;;;;;;117906;1190;25424;-70
2023/04/14 08:30:43;;;;;;;;;20.75;17.50;;;;;;;;118188;1177;24992;-68
2023/04/14 08:33:11;;;;;;;;;19.25;16.75;;;;;;;;117892;1179;25048;-66
2023/04/14 08:35:40;;;;;;;;;11.50;11.00;;;;;;;;118189;1187;24795;-69
2023/04/14 08:38:10;;;;;;;;;15.33;14.00;;;;;;;;117909;1190;25007;-68
2023/04/14 08:40:41;;;;;;;;;21.00;16.50;;;;;;;;118208;1177;24742;-68
2023/04/14 08:43:10;;;;;;;;;16.50;14.00;;;;;;;;118168;1177;25267;-69
2023/04/14 08:45:42;;;;;;;;;15.00;15.00;;;;;;;;117886;1188;24794;-70
2023/04/14 08:48:11;;;;;;;;;15.33;13.67;;;;;;;;117873;1181;24952;-69
2023/04/14 08:51:05;;;;;;;;;14.33;12.33;;;;;;;;117963;1178;25144;-76
2023/04/14 08:53:34;;;;;;;;;19.00;15.75;;;;;;;;117857;1181;24919;-70
2023/04/14 08:56:04;;;;;;;;;21.50;17.25;;;;;;;;117919;1181;25614;-70
2023/04/14 08:58:32;;;;;;;;;20.67;17.00;;;;;;;;118209;1190;25657;-82
2023/04/14 09:01:02;;;;;;;;;14.75;14.25;;;;;;;;118197;1177;26096;-79
2023/04/14 09:03:30;;;;;;;;;15.50;14.00;;;;;;;;117929;1190;25279;-71
2023/04/14 09:05:59;;;;;;;;;11.75;11.00;;;;;;;;118141;1190;25578;-73
2023/04/14 09:08:32;;;;;;;;;18.00;16.50;;;;;;;;117970;1182;25091;-72
2023/04/14 09:11:02;;;;;;;;;16.00;13.00;;;;;;;;117948;1190;25040;-72
2023/04/14 09:13:31;;;;;;;;;19.00;16.00;;;;;;;;117954;1180;25334;-72
2023/04/14 09:16:00;;;;;;;;;13.00;10.67;;;;;;;;118135;1177;25653;-71
2023/04/14 09:18:30;;;;;;;;;15.00;13.00;;;;;;;;118126;1177;24797;-72
2023/04/14 09:21:02;;;;;;;;;15.00;13.00;;;;;;;;117930;1179;26097;-72
2023/04/14 09:23:50;;;;;;;;;13.33;10.67;;;;;;;;117806;1178;24898;-73
2023/04/14 09:26:19;;;;;;;;;12.33;12.33;;;;;;;;117896;1177;24952;-72
2023/04/14 09:28:47;;;;;;;;;14.75;11.75;;;;;;;;117843;1190;24888;-73
2023/04/14 09:31:16;;;;;;;;;12.75;12.00;;;;;;;;117865;1190;25490;-74
2023/04/14 09:33:49;;;;;;;;;15.33;12.67;;;;;;;;117835;1180;25604;-71
2023/04/14 09:36:23;;;;;;;;;9.25;7.75;;;;;;;;117909;1177;25266;-70
2023/04/14 09:38:51;;;;;;;;;14.00;13.00;;;;;;;;118012;1178;25133;-70
2023/04/14 09:41:21;;;;;;;;;11.50;10.00;;;;;;;;117945;1190;25377;-73
2023/04/14 09:43:51;;;;;;;;;10.00;10.00;;;;;;;;118151;1190;25380;-72
2023/04/14 09:46:20;;;;;;;;;12.00;12.00;;;;;;;;118166;1178;25305;-72
2023/04/14 09:48:56;;;;;;;;;13.00;12.67;;;;;;;;117880;1180;25392;-72
2023/04/14 09:51:31;;;;;;;;;14.25;11.25;;;;;;;;118246;1190;25967;-71
2023/04/14 09:54:04;;;;;;;;;11.33;10.33;;;;;;;;118170;1178;25200;-71
2023/04/14 09:56:36;;;;;;;;;9.67;8.67;;;;;;;;117947;1182;25271;-71
2023/04/14 09:59:09;;;;;;;;;9.00;9.00;;;;;;;;118157;1188;25141;-71
2023/04/14 10:01:38;;;;;;;;;10.00;10.00;;;;;;;;118159;1177;25520;-71
2023/04/14 10:04:20;;;;;;;;;10.33;9.67;;;;;;;;118133;1178;24839;-71
2023/04/14 10:06:55;;;;;;;;;12.75;11.75;;;;;;;;118143;1177;26015;-71
2023/04/14 10:09:26;;;;;;;;;11.00;10.67;;;;;;;;118128;1179;25112;-70
2023/04/14 10:12:11;;;;;;;;;9.50;8.25;;;;;;;;117859;1180;25526;-71
2023/04/14 10:14:40;;;;;;;;;12.00;9.00;;;;;;;;117829;1179;24834;-72
2023/04/14 10:17:10;;;;;;;;;12.75;9.75;;;;;;;;118178;1177;24986;-72
2023/04/14 10:19:45;;;;;;;;;15.67;12.33;;;;;;;;118184;1177;24866;-70
2023/04/14 10:22:15;;;;;;;;;8.33;8.33;;;;;;;;117943;1179;25537;-71
2023/04/14 10:24:48;;;;;;;;;10.00;7.00;;;;;;;;117907;1180;24844;-71
2023/04/14 10:27:16;;;;;;;;;11.67;8.00;;;;;;;;118146;1177;25669;-72
2023/04/14 10:29:46;;;;;;;;;9.00;8.00;;;;;;;;117872;1187;25204;-71
2023/04/14 10:32:15;;;;;;;;;10.33;9.33;;;;;;;;117798;1177;25685;-71
2023/04/14 10:34:58;;;;;;;;;8.00;8.00;;;;;;;;117827;1181;25223;-73
2023/04/14 10:37:27;;;;;;;;;10.25;9.75;;;;;;;;117868;1177;25481;-75
2023/04/14 10:39:58;;;;;;;;;14.00;9.75;;;;;;;;117863;1190;25711;-77
2023/04/14 10:42:58;;;;;;;;;10.00;8.50;;;;;;;;117896;1177;25350;-76
2023/04/14 10:45:27;;;;;;;;;12.50;10.50;;;;;;;;117863;1177;25218;-64
2023/04/14 10:47:56;;;;;;;;;9.00;9.00;;;;;;;;117882;1179;25391;-62
2023/04/14 10:50:25;;;;;;;;;11.67;9.33;;;;;;;;118183;1184;25417;-65
2023/04/14 10:52:55;;;;;;;;;6.67;6.67;;;;;;;;118178;1190;24863;-64
2023/04/14 10:55:27;;;;;;;;;10.33;8.00;;;;;;;;118203;1177;25390;-64
2023/04/14 10:58:05;;;;;;;;;13.00;11.50;;;;;;;;118166;1177;25302;-64
2023/04/14 11:00:37;;;;;;;;;7.50;7.50;;;;;;;;117950;1181;25333;-64
2023/04/14 11:03:11;;;;;;;;;11.00;10.00;;;;;;;;117877;1180;24975;-63
2023/04/14 11:05:47;;;;;;;;;10.00;10.00;;;;;;;;117862;1177;25549;-64
2023/04/14 11:08:26;;;;;;;;;11.00;10.00;;;;;;;;118046;1177;25306;-65
2023/04/14 11:11:03;;;;;;;;;9.50;9.00;;;;;;;;117829;1187;25508;-64
2023/04/14 11:13:33;;;;;;;;;12.67;10.00;;;;;;;;118005;1190;25257;-64
2023/04/14 11:16:06;;;;;;;;;11.00;9.75;;;;;;;;118036;1177;24773;-64
2023/04/14 11:18:42;;;;;;;;;11.50;10.50;;;;;;;;117904;1183;25249;-63
2023/04/14 11:21:16;;;;;;;;;8.33;8.33;;;;;;;;117991;1177;25586;-64
2023/04/14 11:23:45;;;;;;;;;10.67;9.33;;;;;;;;117936;1190;25555;-64
2023/04/14 11:26:14;;;;;;;;;11.00;7.67;;;;;;;;117990;1177;24699;-63
2023/04/14 11:28:43;;;;;;;;;9.00;9.00;;;;;;;;117864;1183;25325;-64
2023/04/14 11:31:14;;;;;;;;;9.25;7.50;;;;;;;;118039;1184;24989;-64
2023/04/14 11:33:43;;;;;;;;;8.75;8.25;;;;;;;;118040;1177;25147;-65
2023/04/14 11:36:12;;;;;;;;;10.50;8.00;;;;;;;;118070;1178;25138;-64
2023/04/14 11:38:41;;;;;;;;;10.67;10.00;;;;;;;;118000;1178;25169;-64
2023/04/14 11:41:15;;;;;;;;;11.00;8.50;;;;;;;;118036;1183;24838;-63
2023/04/14 11:43:47;;;;;;;;;8.33;6.00;;;;;;;;118069;1177;24769;-63
2023/04/14 11:46:19;;;;;;;;;8.67;8.33;;;;;;;;118032;1177;25064;-63
2023/04/14 11:48:53;;;;;;;;;9.25;9.00;;;;;;;;118019;1182;25507;-63
2023/04/14 11:51:31;;;;;;;;;7.67;7.67;;;;;;;;118007;1182;25362;-64
2023/04/14 11:53:59;;;;;;;;;8.33;6.67;;;;;;;;117971;1177;24971;-64
2023/04/14 11:56:30;;;;;;;;;9.00;9.00;;;;;;;;117872;1179;25096;-65
2023/04/14 11:59:03;;;;;;;;;9.00;7.00;;;;;;;;117985;1177;24689;-64
2023/04/14 12:01:32;;;;;;;;;10.33;6.33;;;;;;;;117902;1177;24768;-63
2023/04/14 12:04:02;;;;;;;;;9.67;9.67;;;;;;;;117986;1177;25547;-63
2023/04/14 12:06:35;;;;;;;;;11.00;7.00;;;;;;;;117997;1190;25085;-63
2023/04/14 12:09:08;;;;;;;;;8.33;7.33;;;;;;;;117832;1188;25632;-63
2023/04/14 12:11:36;;;;;;;;;6.50;6.50;;;;;;;;118035;1183;25026;-64
2023/04/14 12:14:05;;;;;;;;;8.25;7.50;;;;;;;;117925;1188;25107;-65
2023/04/14 12:16:33;;;;;;;;;8.50;8.00;;;;;;;;118010;1184;25214;-66
2023/04/14 12:19:02;;;;;;;;;9.33;8.00;;;;;;;;118099;1179;25005;-65
2023/04/14 12:21:31;;;;;;;;;9.67;8.33;;;;;;;;117906;1180;24820;-73
2023/04/14 12:23:59;;;;;;;;;8.00;7.00;;;;;;;;117940;1180;25256;-77
2023/04/14 12:26:29;;;;;;;;;7.00;7.00;;;;;;;;117987;1190;24776;-65
2023/04/14 12:28:57;;;;;;;;;9.00;8.00;;;;;;;;118096;1184;25472;-63
2023/04/14 12:31:28;;;;;;;;;7.25;7.00;;;;;;;;118101;1177;25074;-63
2023/04/14 12:34:02;;;;;;;;;11.50;10.00;;;;;;;;118014;1178;25655;-69
2023/04/14 12:36:31;;;;;;;;;10.33;9.00;;;;;;;;118059;1187;24794;-67
2023/04/14 12:39:18;;;;;;;;;10.75;8.25;;;;;;;;117849;1183;25059;-74
2023/04/14 12:41:47;;;;;;;;;6.00;6.00;;;;;;;;117922;1177;25551;-65
2023/04/14 12:44:17;;;;;;;;;13.75;11.50;;;;;;;;118024;1178;24895;-65
2023/04/14 12:46:49;;;;;;;;;12.50;10.00;;;;;;;;118037;1184;25609;-65
2023/04/14 12:49:37;;;;;;;;;12.25;11.50;;;;;;;;118032;1187;25651;-65
2023/04/14 12:52:06;;;;;;;;;12.00;10.00;;;;;;;;117804;1180;24800;-68
2023/04/14 12:54:46;;;;;;;;;12.00;9.67;;;;;;;;117878;1190;25395;-70
2023/04/14 12:57:15;;;;;;;;;10.00;10.00;;;;;;;;117904;1184;24995;-61
2023/04/14 12:59:44;;;;;;;;;10.00;9.00;;;;;;;;117877;1177;25208;-63
2023/04/14 13:02:14;;;;;;;;;9.67;8.00;;;;;;;;117852;1177;25951;-64
2023/04/14 13:04:43;;;;;;;;;9.00;7.33;;;;;;;;117987;1184;24826;-66
2023/04/14 13:07:11;;;;;;;;;10.25;10.00;;;;;;;;117999;1177;25551;-65
2023/04/14 13:09:42;;;;;;;;;11.50;8.50;;;;;;;;117973;1190;25493;-66
2023/04/14 13:12:11;;;;;;;;;8.67;8.00;;;;;;;;118003;1177;25189;-66
2023/04/14 13:14:39;;;;;;;;;12.50;10.00;;;;;;;;117984;1177;25572;-64
2023/04/14 13:17:07;;;;;;;;;8.00;8.00;;;;;;;;117862;1177;25168;-66
2023/04/14 13:19:36;;;;;;;;;9.50;6.50;;;;;;;;118011;1190;25641;-65
2023/04/14 13:22:05;;;;;;;;;13.00;8.33;;;;;;;;117923;1177;24822;-66
2023/04/14 13:24:33;;;;;;;;;15.67;10.00;;;;;;;;117880;1179;25105;-66
2023/04/14 13:27:02;;;;;;;;;12.00;10.75;;;;;;;;117994;1177;25388;-66
2023/04/14 13:29:32;;;;;;;;;11.00;11.00;;;;;;;;117944;1177;25140;-66
2023/04/14 13:32:00;;;;;;;;;11.00;10.00;;;;;;;;118051;1183;25180;-66
2023/04/14 13:34:29;;;;;;;;;9.00;9.00;;;;;;;;118026;1177;24704;-64
2023/04/14 13:36:57;;;;;;;;;11.00;10.00;;;;;;;;117899;1190;25728;-63
2023/04/14 13:39:26;;;;;;;;;11.00;10.00;;;;;;;;117999;1177;25581;-63
2023/04/14 13:41:54;;;;;;;;;11.75;11.00;;;;;;;;118002;1177;25133;-64
2023/04/14 13:44:23;;;;;;;;;15.50;12.00;;;;;;;;118023;1177;25104;-64
2023/04/14 13:46:52;;;;;;;;;13.33;10.00;;;;;;;;118029;1177;24958;-64
2023/04/14 13:49:20;;;;;;;;;10.00;10.00;;;;;;;;117990;1177;25697;-62
2023/04/14 13:51:49;;;;;;;;;9.25;9.00;;;;;;;;117947;1178;25523;-67
2023/04/14 13:54:17;;;;;;;;;18.00;10.00;;;;;;;;117940;1190;25317;-63
2023/04/14 13:56:46;;;;;;;;;11.50;7.75;;;;;;;;117945;1184;25620;-61
2023/04/14 13:59:15;;;;;;;;;11.00;9.25;;;;;;;;117972;1189;25344;-61
2023/04/14 14:01:44;;;;;;;;;11.00;10.00;;;;;;;;117999;1177;24676;-62
2023/04/14 14:04:12;;;;;;;;;13.50;10.50;;;;;;;;117957;1190;25660;-61
2023/04/14 14:06:41;;;;;;;;;10.50;9.00;;;;;;;;118007;1183;25293;-61
2023/04/14 14:09:10;;;;;;;;;14.50;13.00;;;;;;;;118002;1177;25117;-62
2023/04/14 14:11:42;;;;;;;;;13.25;11.00;;;;;;;;118015;1177;24949;-61
2023/04/14 14:14:11;;;;;;;;;12.33;11.00;;;;;;;;117925;1179;25089;-60
2023/04/14 14:16:40;;;;;;;;;13.33;13.00;;;;;;;;117850;1177;24683;-61
2023/04/14 14:19:12;;;;;;;;;11.33;10.00;;;;;;;;117952;1177;24683;-64
2023/04/14 14:21:43;;;;;;;;;11.67;11.33;;;;;;;;117857;1180;24832;-64
2023/04/14 14:24:11;;;;;;;;;13.50;11.00;;;;;;;;117899;1177;24987;-63
2023/04/14 14:26:40;;;;;;;;;9.50;8.75;;;;;;;;117982;1177;25647;-76